Time;durP1;ratioP1;P1;durP2;ratioP2;P2;SDS_P1;SDS_P2;PMS_P1;PMS_P2;Temp;Humidity;BMP_temperature;BMP_pressure;BME280_temperature;BME280_humidity;BME280_pressure;Samples;Min_cycle;Max_cycle;Signal;HPM_P1;HPM_P2
2021/01/04 00:02:35;;;;;;;96.18;44.45;;;2.10;99.90;;;;;;5025958;28;20014;-81
2021/01/04 00:05:09;;;;;;;102.35;47.78;;;2.10;99.90;;;;;;4993041;28;20034;-82
2021/01/04 00:07:43;;;;;;;92.60;43.45;;;2.10;99.90;;;;;;5005673;28;20030;-83
2021/01/04 00:10:23;;;;;;;95.63;46.03;;;2.00;99.90;;;;;;5014146;28;20030;-83
2021/01/04 00:13:09;;;;;;;83.63;39.88;;;2.00;99.90;;;;;;5012761;28;20068;-83
2021/01/04 00:16:10;;;;;;;96.65;44.20;;;2.00;99.90;;;;;;5013388;28;20069;-82
2021/01/04 00:19:01;;;;;;;79.90;37.60;;;2.00;99.90;;;;;;5012764;28;20030;-83
2021/01/04 00:21:33;;;;;;;84.80;37.92;;;2.00;99.90;;;;;;5008530;28;20022;-82
2021/01/04 00:24:05;;;;;;;90.93;44.22;;;2.00;99.90;;;;;;5006563;28;20112;-82
2021/01/04 00:26:43;;;;;;;81.63;44.17;;;2.00;99.90;;;;;;5013599;28;20487;-83
2021/01/04 00:29:10;;;;;;;76.43;36.60;;;2.00;99.90;;;;;;5013508;28;20538;-83
2021/01/04 00:31:41;;;;;;;81.20;37.75;;;1.90;99.90;;;;;;5012224;28;20501;-83
2021/01/04 00:34:18;;;;;;;79.72;36.67;;;1.90;99.90;;;;;;5013405;28;20030;-82
2021/01/04 00:37:09;;;;;;;64.20;30.90;;;1.90;99.90;;;;;;5013504;28;20103;-82
2021/01/04 00:39:54;;;;;;;53.65;24.95;;;1.80;99.90;;;;;;5013085;28;20022;-84
2021/01/04 00:42:42;;;;;;;57.03;28.48;;;1.80;99.90;;;;;;5012377;28;20113;-83
2021/01/04 00:45:19;;;;;;;69.97;35.17;;;1.70;99.90;;;;;;5013328;28;20041;-83
2021/01/04 00:48:06;;;;;;;64.20;33.95;;;1.70;99.90;;;;;;5012212;28;20022;-82
2021/01/04 00:50:50;;;;;;;69.50;35.20;;;1.60;99.90;;;;;;5011725;28;20037;-82
2021/01/04 00:53:23;;;;;;;65.85;32.42;;;1.70;99.90;;;;;;5013578;28;20107;-82
2021/01/04 00:56:05;;;;;;;68.10;33.63;;;1.60;99.90;;;;;;5011944;28;20022;-82
2021/01/04 00:58:37;;;;;;;65.47;31.40;;;1.60;99.90;;;;;;5012641;28;20018;-81
2021/01/04 01:01:27;;;;;;;60.42;30.40;;;1.60;99.90;;;;;;5011757;28;20033;-81
2021/01/04 01:04:06;;;;;;;64.85;32.55;;;1.60;99.90;;;;;;5011174;28;20507;-82
2021/01/04 01:06:46;;;;;;;78.13;35.45;;;1.60;99.90;;;;;;5008381;28;20041;-82
2021/01/04 01:09:13;;;;;;;62.67;29.98;;;1.70;99.90;;;;;;5024906;28;20390;-82
2021/01/04 01:12:03;;;;;;;48.95;27.58;;;1.60;99.90;;;;;;4993431;28;20073;-82
2021/01/04 01:14:42;;;;;;;44.75;22.17;;;1.60;99.90;;;;;;5008553;28;20484;-83
2021/01/04 01:17:40;;;;;;;54.78;25.48;;;1.60;99.90;;;;;;5008436;28;20153;-84
2021/01/04 01:20:27;;;;;;;69.13;31.52;;;1.60;99.90;;;;;;5000897;28;20022;-83
2021/01/04 01:22:53;;;;;;;75.82;34.08;;;1.60;99.90;;;;;;5012804;28;20557;-82
2021/01/04 01:25:25;;;;;;;82.30;38.88;;;1.50;99.90;;;;;;5011622;28;20036;-82
2021/01/04 01:28:19;;;;;;;85.82;38.22;;;1.50;99.90;;;;;;5011490;28;20029;-82
2021/01/04 01:30:59;;;;;;;77.72;33.65;;;1.40;99.90;;;;;;5011583;28;20061;-82
2021/01/04 01:34:02;;;;;;;78.80;37.50;;;1.40;99.90;;;;;;5012845;28;20053;-82
2021/01/04 01:36:49;;;;;;;69.63;34.40;;;1.40;99.90;;;;;;5012047;28;20097;-82
2021/01/04 01:39:38;;;;;;;72.45;31.50;;;1.40;99.90;;;;;;5011431;28;20112;-81
2021/01/04 01:42:07;;;;;;;63.03;27.60;;;1.40;99.90;;;;;;5011502;28;20029;-82
2021/01/04 01:44:43;;;;;;;51.33;27.67;;;1.30;99.90;;;;;;5012658;28;20558;-82
2021/01/04 01:47:42;;;;;;;54.65;26.95;;;1.40;99.90;;;;;;5011424;28;20164;-82
2021/01/04 01:50:17;;;;;;;55.42;25.42;;;1.40;99.90;;;;;;5003343;28;20029;-82
2021/01/04 01:52:43;;;;;;;63.78;28.70;;;1.40;99.90;;;;;;5013542;28;20034;-82
2021/01/04 01:55:20;;;;;;;66.32;30.92;;;1.40;99.90;;;;;;5016674;28;20472;-82
2021/01/04 01:57:59;;;;;;;54.40;29.15;;;1.30;99.90;;;;;;5016370;28;20032;-82
2021/01/04 02:00:28;;;;;;;60.03;27.60;;;1.30;99.90;;;;;;5015076;28;20026;-82
2021/01/04 02:02:57;;;;;;;59.33;29.45;;;1.30;99.90;;;;;;5014825;28;20018;-83
2021/01/04 02:05:47;;;;;;;67.25;32.20;;;1.20;99.90;;;;;;5015243;28;20076;-83
2021/01/04 02:08:18;;;;;;;66.45;31.08;;;1.20;99.90;;;;;;5016054;28;20029;-81
2021/01/04 02:10:50;;;;;;;61.78;31.77;;;1.30;99.90;;;;;;5014903;28;20028;-82
2021/01/04 02:13:26;;;;;;;71.10;32.95;;;1.30;99.90;;;;;;5014811;28;20022;-82
2021/01/04 02:15:53;;;;;;;71.43;33.85;;;1.30;99.90;;;;;;5014988;28;20348;-83
2021/01/04 02:18:59;;;;;;;81.95;37.25;;;1.30;99.90;;;;;;5015961;28;20054;-81
2021/01/04 02:21:47;;;;;;;111.80;45.22;;;1.30;99.90;;;;;;5014499;28;20062;-82
2021/01/04 02:24:23;;;;;;;69.55;30.48;;;1.40;99.90;;;;;;5014438;28;20038;-81
2021/01/04 02:27:01;;;;;;;53.15;26.45;;;1.40;99.90;;;;;;5014752;28;20034;-82
2021/01/04 02:29:27;;;;;;;56.28;26.75;;;1.40;99.90;;;;;;5014376;28;20049;-82
2021/01/04 02:31:57;;;;;;;54.38;26.23;;;1.40;99.90;;;;;;5014388;28;20030;-82
2021/01/04 02:34:28;;;;;;;48.22;27.60;;;1.40;99.90;;;;;;5014760;28;20029;-82
2021/01/04 02:36:56;;;;;;;54.47;27.00;;;1.50;99.90;;;;;;5014151;28;20083;-82
2021/01/04 02:39:37;;;;;;;56.90;27.73;;;1.50;99.90;;;;;;5014284;28;20026;-83
2021/01/04 02:42:11;;;;;;;63.20;33.75;;;1.50;99.90;;;;;;5014252;28;20082;-83
2021/01/04 02:44:38;;;;;;;63.47;29.67;;;1.40;99.90;;;;;;5014169;28;20041;-83
2021/01/04 02:47:22;;;;;;;69.97;32.75;;;1.50;99.90;;;;;;5014059;28;20022;-82
2021/01/04 02:50:06;;;;;;;85.03;38.13;;;1.40;99.90;;;;;;5015259;28;20029;-83
2021/01/04 02:52:59;;;;;;;86.10;42.10;;;1.30;99.90;;;;;;5014252;28;20472;-83
2021/01/04 02:55:33;;;;;;;99.13;42.67;;;1.30;99.90;;;;;;5014137;28;20022;-82
2021/01/04 02:58:15;;;;;;;98.82;44.22;;;1.30;99.90;;;;;;5013977;28;20117;-83
2021/01/04 03:00:44;;;;;;;90.78;41.40;;;1.30;99.90;;;;;;5013941;28;20028;-83
2021/01/04 03:03:10;;;;;;;84.05;40.47;;;1.30;99.90;;;;;;5013336;28;20033;-82
2021/01/04 03:05:37;;;;;;;78.75;37.38;;;1.40;99.90;;;;;;5013814;28;20026;-83
2021/01/04 03:08:03;;;;;;;75.85;36.20;;;1.40;99.90;;;;;;5013677;28;20353;-82
2021/01/04 03:10:34;;;;;;;72.38;36.03;;;1.40;99.90;;;;;;5013790;28;20018;-81
2021/01/04 03:13:22;;;;;;;75.10;36.00;;;1.40;99.90;;;;;;5013507;28;20018;-81
2021/01/04 03:16:04;;;;;;;70.35;33.90;;;1.30;99.90;;;;;;5010270;28;20205;-82
2021/01/04 03:18:36;;;;;;;72.68;32.75;;;1.30;99.90;;;;;;4993982;28;20023;-82
2021/01/04 03:21:03;;;;;;;77.78;34.97;;;1.30;99.90;;;;;;4994343;28;20384;-82
2021/01/04 03:23:30;;;;;;;74.80;38.15;;;1.30;99.90;;;;;;4995071;28;20037;-82
2021/01/04 03:26:04;;;;;;;74.75;37.03;;;1.30;99.90;;;;;;4993688;28;20461;-82
2021/01/04 03:28:31;;;;;;;77.10;35.80;;;1.30;99.90;;;;;;4993822;28;20072;-82
2021/01/04 03:30:58;;;;;;;77.72;36.08;;;1.30;99.90;;;;;;4994077;28;20025;-82
2021/01/04 03:33:24;;;;;;;64.68;30.88;;;1.30;99.90;;;;;;4992859;28;20034;-83
2021/01/04 03:35:51;;;;;;;67.50;32.30;;;1.20;99.90;;;;;;4998561;28;20029;-83
2021/01/04 03:38:17;;;;;;;71.82;35.58;;;1.20;99.90;;;;;;5013129;28;20136;-83
2021/01/04 03:40:43;;;;;;;64.95;32.45;;;1.20;99.90;;;;;;5013123;28;20120;-82
2021/01/04 03:43:09;;;;;;;67.05;31.83;;;1.20;99.90;;;;;;5029224;28;20176;-82
2021/01/04 03:45:34;;;;;;;71.47;33.67;;;1.20;99.90;;;;;;5013051;28;20022;-82
2021/01/04 03:48:00;;;;;;;65.93;31.98;;;1.10;99.90;;;;;;5013011;28;20025;-82
2021/01/04 03:50:26;;;;;;;74.95;33.85;;;1.10;99.90;;;;;;5012950;28;20060;-82
2021/01/04 03:52:51;;;;;;;72.00;33.97;;;1.10;99.90;;;;;;5012903;28;20121;-82
2021/01/04 03:55:18;;;;;;;69.60;34.95;;;1.10;99.90;;;;;;5014174;28;20018;-82
2021/01/04 03:57:44;;;;;;;73.70;35.25;;;1.10;99.90;;;;;;5012818;28;20024;-82
2021/01/04 04:00:12;;;;;;;70.38;33.88;;;1.10;99.90;;;;;;5014070;28;20060;-83
2021/01/04 04:02:37;;;;;;;73.05;34.55;;;1.10;99.90;;;;;;5012614;28;20217;-82
2021/01/04 04:05:06;;;;;;;66.55;31.60;;;1.10;99.90;;;;;;5029078;28;20069;-82
2021/01/04 04:07:32;;;;;;;72.65;35.85;;;1.00;99.90;;;;;;5012396;28;20472;-82
2021/01/04 04:09:58;;;;;;;65.45;31.58;;;1.00;99.90;;;;;;5012382;28;20044;-82
2021/01/04 04:12:24;;;;;;;67.95;30.30;;;1.00;99.90;;;;;;5012548;28;20067;-82
2021/01/04 04:14:50;;;;;;;61.80;29.80;;;0.90;99.90;;;;;;5028277;28;20034;-82
2021/01/04 04:17:17;;;;;;;57.17;27.40;;;0.90;99.90;;;;;;5012447;28;20164;-82
2021/01/04 04:19:47;;;;;;;57.92;28.17;;;0.90;99.90;;;;;;5012461;28;20480;-82
2021/01/04 04:22:13;;;;;;;59.40;29.65;;;0.90;99.90;;;;;;5012367;28;20026;-82
2021/01/04 04:24:40;;;;;;;62.03;29.52;;;0.90;99.90;;;;;;5012322;28;20391;-82
2021/01/04 04:27:07;;;;;;;63.83;31.27;;;0.90;99.90;;;;;;5008847;28;20025;-82
2021/01/04 04:29:34;;;;;;;55.80;28.33;;;0.90;99.90;;;;;;4994209;28;20030;-81
2021/01/04 04:31:59;;;;;;;59.92;30.40;;;0.90;99.90;;;;;;4992927;28;20027;-82
2021/01/04 04:34:25;;;;;;;70.88;30.92;;;0.80;99.90;;;;;;4992599;28;20045;-82
2021/01/04 04:36:51;;;;;;;65.07;32.75;;;0.80;99.90;;;;;;4992374;28;20026;-82
2021/01/04 04:39:17;;;;;;;119.60;53.92;;;0.80;99.90;;;;;;4992290;28;20072;-81
2021/01/04 04:41:47;;;;;;;89.32;41.00;;;0.80;99.90;;;;;;4992414;28;20539;-81
2021/01/04 04:44:25;;;;;;;118.15;52.35;;;0.70;99.90;;;;;;4992383;28;20404;-81
2021/01/04 04:47:23;;;;;;;172.43;75.88;;;0.70;99.90;;;;;;5008836;28;20108;-81
2021/01/04 04:50:13;;;;;;;192.05;84.13;;;0.70;99.90;;;;;;4992469;28;20065;-81
2021/01/04 04:53:08;;;;;;;88.93;41.92;;;0.70;99.90;;;;;;4993500;28;20030;-81
2021/01/04 04:56:02;;;;;;;102.53;46.72;;;0.70;99.90;;;;;;4988277;28;20034;-81
2021/01/04 04:58:48;;;;;;;86.18;45.17;;;0.60;99.90;;;;;;5023173;28;20231;-81
2021/01/04 05:01:38;;;;;;;96.70;41.75;;;0.60;99.90;;;;;;5011928;28;20065;-81
2021/01/04 05:04:25;;;;;;;71.93;36.70;;;0.60;99.90;;;;;;5011582;28;20042;-82
2021/01/04 05:07:00;;;;;;;79.68;41.60;;;0.60;99.90;;;;;;5011787;28;20042;-82
2021/01/04 05:09:45;;;;;;;83.28;41.92;;;0.60;99.90;;;;;;5011642;28;20387;-82
2021/01/04 05:12:17;;;;;;;88.82;42.20;;;0.60;99.90;;;;;;5012948;28;20025;-82
2021/01/04 05:15:03;;;;;;;78.22;33.85;;;0.60;99.90;;;;;;5012029;28;20030;-82
2021/01/04 05:18:10;;;;;;;62.22;31.50;;;0.70;99.90;;;;;;5012572;28;20496;-82
2021/01/04 05:20:39;;;;;;;70.32;32.90;;;0.70;99.90;;;;;;5011766;28;20484;-83
2021/01/04 05:23:19;;;;;;;78.78;38.50;;;0.70;99.90;;;;;;5012882;28;20156;-83
2021/01/04 05:26:13;;;;;;;83.57;36.97;;;0.70;99.90;;;;;;5012590;28;20025;-83
2021/01/04 05:28:51;;;;;;;99.32;44.08;;;0.70;99.90;;;;;;5016426;28;20114;-82
2021/01/04 05:31:55;;;;;;;104.13;46.60;;;0.70;99.90;;;;;;5015623;28;20109;-82
2021/01/04 05:34:30;;;;;;;148.98;61.42;;;0.70;99.90;;;;;;5016800;28;20022;-83
2021/01/04 05:37:21;;;;;;;151.00;57.67;;;0.70;99.90;;;;;;5012076;28;20453;-82
2021/01/04 05:40:13;;;;;;;123.53;55.80;;;0.70;99.90;;;;;;4995873;28;20472;-83
2021/01/04 05:42:47;;;;;;;76.30;34.28;;;0.80;99.90;;;;;;4995764;28;20026;-82
2021/01/04 05:45:22;;;;;;;77.45;35.65;;;0.90;99.90;;;;;;4995653;28;20044;-82
2021/01/04 05:48:25;;;;;;;94.60;42.30;;;0.90;99.90;;;;;;4996376;28;20089;-83
2021/01/04 05:51:00;;;;;;;110.03;45.73;;;1.00;99.90;;;;;;4995651;28;20065;-82
2021/01/04 05:53:25;;;;;;;133.82;61.03;;;1.00;99.90;;;;;;4995803;28;20286;-83
2021/01/04 05:55:59;;;;;;;134.60;63.33;;;1.00;99.90;;;;;;4996740;28;20442;-83
2021/01/04 05:58:31;;;;;;;143.65;62.67;;;1.00;99.90;;;;;;5010958;28;20394;-82
2021/01/04 06:01:13;;;;;;;137.88;62.80;;;1.00;99.90;;;;;;5015129;28;20076;-82
2021/01/04 06:03:39;;;;;;;124.47;57.50;;;1.10;99.90;;;;;;5011284;28;20042;-82
2021/01/04 06:06:13;;;;;;;135.32;57.00;;;1.00;99.90;;;;;;5011602;28;20018;-81
2021/01/04 06:08:39;;;;;;;166.05;68.70;;;1.10;99.90;;;;;;4995616;28;20085;-82
2021/01/04 06:11:12;;;;;;;171.98;66.35;;;1.10;99.90;;;;;;4995206;28;20027;-81
2021/01/04 06:13:44;;;;;;;124.60;51.42;;;1.10;99.90;;;;;;4995134;28;20106;-82
2021/01/04 06:16:17;;;;;;;99.82;43.83;;;1.10;99.90;;;;;;4995106;28;20048;-81
2021/01/04 06:18:46;;;;;;;76.78;39.53;;;1.10;99.90;;;;;;5012681;28;20056;-82
2021/01/04 06:21:22;;;;;;;98.00;45.40;;;1.10;99.90;;;;;;5015887;28;20029;-82
2021/01/04 06:23:49;;;;;;;103.22;46.90;;;1.10;99.90;;;;;;5014756;28;20046;-82
2021/01/04 06:26:21;;;;;;;103.22;51.45;;;1.10;99.90;;;;;;5014490;28;20022;-81
2021/01/04 06:28:57;;;;;;;116.45;53.28;;;1.10;99.90;;;;;;5014632;28;20026;-81
2021/01/04 06:31:38;;;;;;;86.68;40.05;;;1.10;99.90;;;;;;5014621;28;20076;-81
2021/01/04 06:34:33;;;;;;;87.30;40.75;;;1.10;99.90;;;;;;5010102;28;20077;-81
2021/01/04 06:37:01;;;;;;;60.92;30.63;;;1.00;99.90;;;;;;4994006;28;20089;-80
2021/01/04 06:39:33;;;;;;;48.17;23.88;;;1.10;99.90;;;;;;4994532;28;20022;-81
2021/01/04 06:42:15;;;;;;;41.40;19.70;;;1.10;99.90;;;;;;4994721;28;20117;-81
2021/01/04 06:44:49;;;;;;;31.38;16.23;;;1.20;99.90;;;;;;4994627;28;20042;-82
2021/01/04 06:47:24;;;;;;;35.85;17.92;;;1.30;99.90;;;;;;4994548;28;20081;-82
2021/01/04 06:50:09;;;;;;;38.50;18.80;;;1.40;99.90;;;;;;5027464;28;20035;-81
2021/01/04 06:53:13;;;;;;;31.02;15.63;;;1.50;99.90;;;;;;4994515;28;20033;-81
2021/01/04 06:56:02;;;;;;;31.60;16.25;;;1.60;99.90;;;;;;5013057;28;20038;-82
2021/01/04 06:58:58;;;;;;;36.70;18.23;;;1.70;99.90;;;;;;4995069;28;20073;-80
2021/01/04 07:02:06;;;;;;;38.58;18.77;;;1.70;99.90;;;;;;5020245;28;20438;-80
2021/01/04 07:05:00;;;;;;;32.90;17.27;;;1.80;99.90;;;;;;5025167;28;20037;-80
2021/01/04 07:07:43;;;;;;;33.40;17.17;;;1.90;99.90;;;;;;5013511;28;20486;-81
2021/01/04 07:10:18;;;;;;;37.92;18.45;;;1.90;99.90;;;;;;5014888;28;20022;-80
2021/01/04 07:13:00;;;;;;;34.05;17.23;;;1.90;99.90;;;;;;5014670;28;20125;-81
2021/01/04 07:15:31;;;;;;;36.27;18.10;;;2.00;99.90;;;;;;5014500;28;20030;-80
2021/01/04 07:18:18;;;;;;;30.20;16.02;;;2.00;99.90;;;;;;5011931;28;20324;-82
2021/01/04 07:20:56;;;;;;;32.45;16.63;;;2.10;99.90;;;;;;5012669;28;20026;-80
2021/01/04 07:23:49;;;;;;;31.73;14.80;;;2.10;99.90;;;;;;5013146;28;20072;-81
2021/01/04 07:26:24;;;;;;;32.30;16.70;;;2.20;99.90;;;;;;5013864;28;20025;-83
2021/01/04 07:29:21;;;;;;;29.92;15.70;;;2.30;99.90;;;;;;5011611;28;20026;-83
2021/01/04 07:32:19;;;;;;;24.35;14.13;;;2.40;99.90;;;;;;5012068;28;20084;-87
2021/01/04 07:35:08;;;;;;;30.17;15.35;;;2.60;99.90;;;;;;5015357;28;20380;-83
2021/01/04 07:37:50;;;;;;;38.80;19.58;;;2.60;99.90;;;;;;5020016;28;20030;-81
2021/01/04 07:40:48;;;;;;;54.25;26.45;;;2.70;99.90;;;;;;5014840;28;20034;-81
2021/01/04 07:43:13;;;;;;;54.65;28.65;;;2.70;99.90;;;;;;5013209;28;20384;-81
2021/01/04 07:45:57;;;;;;;54.53;28.50;;;2.70;99.90;;;;;;5018737;28;20037;-81
2021/01/04 07:48:38;;;;;;;53.92;26.83;;;2.80;99.90;;;;;;5012107;28;20084;-81
2021/01/04 07:51:19;;;;;;;42.08;22.27;;;2.80;99.90;;;;;;5012003;28;20414;-81
2021/01/04 07:54:12;;;;;;;39.90;20.73;;;2.70;99.90;;;;;;5015488;28;20046;-81
2021/01/04 07:56:53;;;;;;;39.38;18.90;;;2.80;99.90;;;;;;5018889;28;20085;-82
2021/01/04 08:00:04;;;;;;;37.58;20.13;;;2.80;99.90;;;;;;5018081;28;20084;-81
2021/01/04 08:03:05;;;;;;;41.17;18.70;;;3.00;99.90;;;;;;5013484;28;20026;-81
2021/01/04 08:05:35;;;;;;;28.98;18.45;;;3.10;99.90;;;;;;5026920;28;20035;-83
2021/01/04 08:08:22;;;;;;;40.10;21.77;;;3.20;99.90;;;;;;5011633;28;20044;-83
2021/01/04 08:11:17;;;;;;;35.67;18.67;;;3.30;99.90;;;;;;5020912;28;20067;-79
2021/01/04 08:14:16;;;;;;;35.90;17.05;;;3.50;99.90;;;;;;5011304;28;20032;-80
2021/01/04 08:16:52;;;;;;;35.55;20.52;;;3.60;99.90;;;;;;5015421;28;20037;-79
2021/01/04 08:19:18;;;;;;;43.50;20.80;;;3.70;99.90;;;;;;5011327;28;20396;-79
2021/01/04 08:22:09;;;;;;;39.17;19.10;;;3.80;99.90;;;;;;5012753;28;20033;-78
2021/01/04 08:24:44;;;;;;;29.70;15.80;;;3.90;99.90;;;;;;5012104;28;20061;-79
2021/01/04 08:27:36;;;;;;;30.73;16.10;;;4.00;99.90;;;;;;5012138;28;20110;-79
2021/01/04 08:30:18;;;;;;;32.15;15.38;;;4.20;99.90;;;;;;5012125;28;20022;-79
2021/01/04 08:33:21;;;;;;;33.42;16.90;;;4.30;99.90;;;;;;5011995;28;20033;-79
2021/01/04 08:35:47;;;;;;;33.03;17.70;;;4.50;99.90;;;;;;5008604;28;20049;-79
2021/01/04 08:38:15;;;;;;;33.97;16.73;;;4.50;99.90;;;;;;5012673;28;20030;-80
2021/01/04 08:40:53;;;;;;;31.88;15.82;;;4.60;99.90;;;;;;5011396;28;20022;-79
2021/01/04 08:43:38;;;;;;;31.67;16.85;;;4.60;99.90;;;;;;5010328;28;20030;-80
2021/01/04 08:46:21;;;;;;;37.85;17.27;;;4.60;99.90;;;;;;5011319;28;20022;-79
2021/01/04 08:48:53;;;;;;;34.28;17.48;;;4.60;99.90;;;;;;5012524;28;20089;-79
2021/01/04 08:51:32;;;;;;;34.88;16.95;;;4.60;99.90;;;;;;5012438;28;20157;-78
2021/01/04 08:54:18;;;;;;;39.90;18.45;;;4.50;99.90;;;;;;5011480;28;20388;-80
2021/01/04 08:57:05;;;;;;;40.28;20.48;;;4.50;99.90;;;;;;5015177;28;20018;-80
2021/01/04 08:59:34;;;;;;;37.65;20.65;;;4.50;99.90;;;;;;5016628;28;20018;-80
2021/01/04 09:02:14;;;;;;;38.10;19.95;;;4.40;99.90;;;;;;5014367;28;20105;-81
2021/01/04 09:04:41;;;;;;;41.88;21.00;;;4.40;99.90;;;;;;5009315;28;20048;-80
2021/01/04 09:07:16;;;;;;;57.22;27.33;;;4.40;99.90;;;;;;5010745;28;20026;-78
2021/01/04 09:10:00;;;;;;;64.43;30.55;;;4.40;99.90;;;;;;5012154;28;20471;-79
2021/01/04 09:12:35;;;;;;;49.97;25.80;;;4.30;99.90;;;;;;5010008;28;20033;-79
2021/01/04 09:15:20;;;;;;;37.08;19.10;;;4.30;99.90;;;;;;5025894;28;20025;-80
2021/01/04 09:17:48;;;;;;;39.78;19.88;;;4.30;99.90;;;;;;5008511;28;20057;-79
2021/01/04 09:20:20;;;;;;;41.15;21.38;;;4.20;99.90;;;;;;5011352;28;20022;-79
2021/01/04 09:23:02;;;;;;;40.65;21.73;;;4.10;99.90;;;;;;5012095;28;20033;-80
2021/01/04 09:25:48;;;;;;;54.28;28.55;;;4.00;99.90;;;;;;5010940;28;20048;-80
2021/01/04 09:28:16;;;;;;;62.83;32.00;;;3.90;99.90;;;;;;5010855;28;20029;-81
2021/01/04 09:30:42;;;;;;;72.50;38.03;;;3.80;99.90;;;;;;5012600;28;20069;-79
2021/01/04 09:33:17;;;;;;;77.25;33.15;;;3.70;99.90;;;;;;5012406;28;20368;-78
2021/01/04 09:35:44;;;;;;;75.53;35.30;;;3.60;99.90;;;;;;5010533;28;20080;-78
2021/01/04 09:38:26;;;;;;;71.65;36.97;;;3.50;99.90;;;;;;5009178;28;20055;-79
2021/01/04 09:41:03;;;;;;;75.65;37.58;;;3.40;99.90;;;;;;5011782;28;20025;-80
2021/01/04 09:43:31;;;;;;;78.15;38.28;;;3.30;99.90;;;;;;5016120;28;20033;-80
2021/01/04 09:46:20;;;;;;;80.22;37.60;;;3.30;99.90;;;;;;5025288;28;20054;-80
2021/01/04 09:48:57;;;;;;;70.28;35.20;;;3.30;99.90;;;;;;5013509;28;20499;-80
2021/01/04 09:51:36;;;;;;;65.03;33.22;;;3.30;99.90;;;;;;5036759;28;20018;-80
2021/01/04 09:54:06;;;;;;;64.05;31.33;;;3.40;99.90;;;;;;5021513;28;20025;-80
2021/01/04 09:56:35;;;;;;;69.70;34.45;;;3.40;99.90;;;;;;5022696;28;20025;-82
2021/01/04 09:59:23;;;;;;;66.60;33.85;;;3.50;99.90;;;;;;5025241;28;20097;-80
2021/01/04 10:01:55;;;;;;;69.03;33.20;;;3.60;99.90;;;;;;5018639;28;20026;-80
2021/01/04 10:04:33;;;;;;;61.92;29.42;;;3.80;99.90;;;;;;5016391;28;20030;-80
2021/01/04 10:07:05;;;;;;;57.65;29.20;;;4.00;99.90;;;;;;5011101;28;20053;-80
2021/01/04 10:09:37;;;;;;;66.80;31.92;;;4.10;99.90;;;;;;5014450;28;20092;-80
2021/01/04 10:12:05;;;;;;;70.85;33.08;;;4.30;99.90;;;;;;5010956;28;20026;-81
2021/01/04 10:14:32;;;;;;;71.13;35.28;;;4.40;99.90;;;;;;5013417;28;20013;-81
2021/01/04 10:17:01;;;;;;;65.72;32.05;;;4.50;99.90;;;;;;5014818;28;20026;-80
2021/01/04 10:19:40;;;;;;;56.33;29.83;;;4.60;99.90;;;;;;5013455;28;20539;-80
2021/01/04 10:22:21;;;;;;;53.28;25.30;;;4.70;99.90;;;;;;5014907;28;20072;-80
2021/01/04 10:24:46;;;;;;;53.50;26.77;;;4.70;99.90;;;;;;5012694;28;20034;-80
2021/01/04 10:27:20;;;;;;;46.60;22.45;;;4.80;99.90;;;;;;5013572;28;20049;-80
2021/01/04 10:29:53;;;;;;;44.70;21.35;;;4.90;99.90;;;;;;5014479;28;20022;-79
2021/01/04 10:32:33;;;;;;;42.42;22.52;;;4.90;99.90;;;;;;5015671;28;20032;-80
2021/01/04 10:34:59;;;;;;;44.40;22.20;;;4.90;99.90;;;;;;5012222;28;20035;-80
2021/01/04 10:37:30;;;;;;;46.40;22.25;;;4.90;99.90;;;;;;5013052;28;20022;-79
2021/01/04 10:40:01;;;;;;;42.30;23.55;;;4.90;99.90;;;;;;5008028;28;20034;-79
2021/01/04 10:42:28;;;;;;;49.30;23.92;;;4.90;99.90;;;;;;4993238;28;20032;-79
2021/01/04 10:45:15;;;;;;;48.88;23.35;;;5.00;99.90;;;;;;4994372;28;20038;-79
2021/01/04 10:47:43;;;;;;;52.22;25.90;;;5.00;99.90;;;;;;4994610;28;20069;-79
2021/01/04 10:50:35;;;;;;;48.55;24.75;;;5.00;99.90;;;;;;5038863;28;20080;-80
2021/01/04 10:53:04;;;;;;;47.63;25.35;;;5.00;99.90;;;;;;5014911;28;20029;-80
2021/01/04 10:55:33;;;;;;;49.90;26.42;;;5.10;99.90;;;;;;5010353;28;20035;-80
2021/01/04 10:58:11;;;;;;;45.28;22.23;;;5.20;99.90;;;;;;4994356;28;20025;-80
2021/01/04 11:00:47;;;;;;;37.20;20.10;;;5.40;99.90;;;;;;4994403;28;20018;-79
2021/01/04 11:03:16;;;;;;;34.70;18.10;;;5.60;99.90;;;;;;4995579;28;20014;-80
2021/01/04 11:05:44;;;;;;;37.83;19.08;;;5.70;99.90;;;;;;5010553;28;20073;-80
2021/01/04 11:08:16;;;;;;;28.85;18.02;;;5.70;99.90;;;;;;4995505;28;20543;-80
2021/01/04 11:10:51;;;;;;;35.55;18.17;;;5.80;99.90;;;;;;5038979;28;20531;-80
2021/01/04 11:13:29;;;;;;;36.17;17.80;;;5.80;99.90;;;;;;5021753;28;20116;-80
2021/01/04 11:16:16;;;;;;;32.22;15.68;;;5.80;99.90;;;;;;5022145;28;20026;-80
2021/01/04 11:19:01;;;;;;;33.13;16.08;;;5.80;99.90;;;;;;5015688;28;20430;-80
2021/01/04 11:21:44;;;;;;;34.25;17.85;;;5.80;99.90;;;;;;5012761;28;20388;-80
2021/01/04 11:24:11;;;;;;;29.80;14.98;;;5.80;99.90;;;;;;5008830;28;20045;-81
2021/01/04 11:26:42;;;;;;;36.95;17.80;;;5.80;99.90;;;;;;5012806;28;20022;-80
2021/01/04 11:29:07;;;;;;;28.48;16.60;;;5.80;99.90;;;;;;5013485;28;20407;-80
2021/01/04 11:31:33;;;;;;;28.30;14.57;;;5.70;99.90;;;;;;5011603;28;20033;-81
2021/01/04 11:34:00;;;;;;;30.75;16.17;;;5.60;99.90;;;;;;5018836;28;20021;-82
2021/01/04 11:36:26;;;;;;;30.55;14.20;;;5.40;99.90;;;;;;5026211;28;20018;-81
2021/01/04 11:38:51;;;;;;;26.70;13.45;;;5.40;99.90;;;;;;5032074;28;20091;-81
2021/01/04 11:41:17;;;;;;;24.67;13.35;;;5.30;99.90;;;;;;5009870;28;20027;-81
2021/01/04 11:43:43;;;;;;;26.75;15.00;;;5.20;99.90;;;;;;5012833;28;20098;-81
2021/01/04 11:46:11;;;;;;;26.27;14.60;;;5.20;99.90;;;;;;5015726;28;20018;-81
2021/01/04 11:48:37;;;;;;;32.58;16.70;;;5.20;99.90;;;;;;5029516;28;20026;-81
2021/01/04 11:51:03;;;;;;;25.25;13.60;;;5.20;99.90;;;;;;5029540;28;20121;-81
2021/01/04 11:53:31;;;;;;;34.67;17.70;;;5.20;99.90;;;;;;5011757;28;20048;-82
2021/01/04 11:55:57;;;;;;;37.95;19.50;;;5.20;99.90;;;;;;5014293;28;20391;-81
2021/01/04 11:58:23;;;;;;;42.30;19.67;;;5.20;99.90;;;;;;5014107;28;20033;-82
2021/01/04 12:00:49;;;;;;;31.50;17.00;;;5.30;99.90;;;;;;5017189;28;20025;-81
2021/01/04 12:03:14;;;;;;;34.42;16.40;;;5.30;99.90;;;;;;5022099;28;20022;-81
2021/01/04 12:05:40;;;;;;;30.27;15.35;;;5.30;99.90;;;;;;5005686;28;20022;-81
2021/01/04 12:08:06;;;;;;;30.13;14.77;;;5.30;99.90;;;;;;4991576;28;20023;-81
2021/01/04 12:10:31;;;;;;;28.50;15.45;;;5.30;99.90;;;;;;5006376;28;20030;-81
2021/01/04 12:12:57;;;;;;;37.70;16.65;;;5.40;99.90;;;;;;5012609;28;20022;-81
2021/01/04 12:15:23;;;;;;;31.63;16.67;;;5.40;99.90;;;;;;5012608;28;20029;-82
2021/01/04 12:17:49;;;;;;;31.63;18.73;;;5.40;99.90;;;;;;5012545;28;20033;-81
2021/01/04 12:20:16;;;;;;;35.83;18.02;;;5.40;99.90;;;;;;5012594;28;20534;-81
2021/01/04 12:22:41;;;;;;;30.60;16.52;;;5.50;99.90;;;;;;5012257;28;20014;-81
2021/01/04 12:25:08;;;;;;;36.58;15.68;;;5.50;99.90;;;;;;5012346;28;20188;-81
2021/01/04 12:27:33;;;;;;;30.67;17.83;;;5.50;99.90;;;;;;5012243;28;20034;-81
2021/01/04 12:29:59;;;;;;;29.20;15.40;;;5.50;99.90;;;;;;5012689;28;20017;-81
2021/01/04 12:32:25;;;;;;;29.05;14.77;;;5.50;99.90;;;;;;5012255;28;20107;-81
2021/01/04 12:34:50;;;;;;;27.67;13.95;;;5.50;99.90;;;;;;5011991;28;20026;-81
2021/01/04 12:37:16;;;;;;;34.60;15.90;;;5.50;99.90;;;;;;5011779;28;20483;-81
2021/01/04 12:39:42;;;;;;;29.92;15.70;;;5.50;99.90;;;;;;5012170;28;20028;-81
2021/01/04 12:42:08;;;;;;;27.55;14.80;;;5.50;99.90;;;;;;5010427;28;20117;-81
2021/01/04 12:44:34;;;;;;;29.98;16.52;;;5.50;99.90;;;;;;5008484;28;20153;-81
2021/01/04 12:47:00;;;;;;;28.17;15.48;;;5.50;99.90;;;;;;5009997;28;20030;-82
2021/01/04 12:49:27;;;;;;;30.23;17.60;;;5.50;99.90;;;;;;5007316;28;20026;-82
2021/01/04 12:51:55;;;;;;;33.80;18.27;;;5.50;99.90;;;;;;5005554;28;20035;-81
2021/01/04 12:54:23;;;;;;;33.22;16.48;;;5.50;99.90;;;;;;5020885;28;20017;-81
2021/01/04 12:56:51;;;;;;;35.72;19.73;;;5.40;99.90;;;;;;5017841;28;20066;-81
2021/01/04 12:59:19;;;;;;;35.35;19.80;;;5.40;99.90;;;;;;5031967;28;20087;-81
2021/01/04 13:01:49;;;;;;;41.03;20.58;;;5.40;99.90;;;;;;5023748;28;20048;-81
2021/01/04 13:04:14;;;;;;;42.63;21.67;;;5.40;99.90;;;;;;5023636;28;20033;-81
2021/01/04 13:06:40;;;;;;;45.97;21.77;;;5.40;99.90;;;;;;5020897;28;20025;-81
2021/01/04 13:09:06;;;;;;;54.67;25.38;;;5.40;99.90;;;;;;5018631;28;20022;-81
2021/01/04 13:11:32;;;;;;;46.92;24.45;;;5.40;99.90;;;;;;5022528;28;20022;-81
2021/01/04 13:13:57;;;;;;;66.45;35.80;;;5.30;99.90;;;;;;5016912;28;20219;-82
2021/01/04 13:16:23;;;;;;;57.40;27.90;;;5.40;99.90;;;;;;5020070;28;20022;-81
2021/01/04 13:18:49;;;;;;;50.50;24.58;;;5.30;99.90;;;;;;5019656;28;20125;-81
2021/01/04 13:21:17;;;;;;;85.00;45.88;;;5.30;99.90;;;;;;5021158;28;20050;-81